sensor_id;sensor_type;location;lat;lon;timestamp;temperature;humidity
20827;DHT22;10574;52.508;13.236;2024-02-23T00:01:48;10.30;99.90
20827;DHT22;10574;52.508;13.236;2024-02-23T00:04:16;10.30;99.90
20827;DHT22;10574;52.508;13.236;2024-02-23T00:06:45;10.30;99.90
20827;DHT22;10574;52.508;13.236;2024-02-23T00:09:13;10.30;99.90
20827;DHT22;10574;52.508;13.236;2024-02-23T00:11:41;10.30;99.90
20827;DHT22;10574;52.508;13.236;2024-02-23T00:14:12;10.30;99.90
20827;DHT22;10574;52.508;13.236;2024-02-23T00:16:40;10.40;99.90
20827;DHT22;10574;52.508;13.236;2024-02-23T00:19:08;10.40;99.90
20827;DHT22;10574;52.508;13.236;2024-02-23T00:21:39;10.40;99.90
20827;DHT22;10574;52.508;13.236;2024-02-23T00:24:08;10.40;99.90
20827;DHT22;10574;52.508;13.236;2024-02-23T00:26:36;10.40;99.90
20827;DHT22;10574;52.508;13.236;2024-02-23T00:29:23;10.40;99.90
20827;DHT22;10574;52.508;13.236;2024-02-23T00:31:51;10.40;99.90
20827;DHT22;10574;52.508;13.236;2024-02-23T00:34:19;10.40;99.90
20827;DHT22;10574;52.508;13.236;2024-02-23T00:36:46;10.40;99.90
20827;DHT22;10574;52.508;13.236;2024-02-23T00:39:15;10.40;99.90
20827;DHT22;10574;52.508;13.236;2024-02-23T00:41:43;10.40;99.90
20827;DHT22;10574;52.508;13.236;2024-02-23T00:44:12;10.40;99.90
20827;DHT22;10574;52.508;13.236;2024-02-23T00:46:40;10.40;99.90
20827;DHT22;10574;52.508;13.236;2024-02-23T00:49:07;10.40;99.90
20827;DHT22;10574;52.508;13.236;2024-02-23T00:51:35;10.40;99.90
20827;DHT22;10574;52.508;13.236;2024-02-23T00:54:03;10.40;99.90
20827;DHT22;10574;52.508;13.236;2024-02-23T00:56:32;10.40;99.90
20827;DHT22;10574;52.508;13.236;2024-02-23T00:59:00;10.40;99.90
20827;DHT22;10574;52.508;13.236;2024-02-23T01:01:28;10.40;99.90
20827;DHT22;10574;52.508;13.236;2024-02-23T01:03:56;10.40;99.90
20827;DHT22;10574;52.508;13.236;2024-02-23T01:06:25;10.50;99.90
20827;DHT22;10574;52.508;13.236;2024-02-23T01:08:55;10.50;99.90
20827;DHT22;10574;52.508;13.236;2024-02-23T01:11:22;10.50;99.90
20827;DHT22;10574;52.508;13.236;2024-02-23T01:13:51;10.50;99.90
20827;DHT22;10574;52.508;13.236;2024-02-23T01:16:19;10.50;99.90
20827;DHT22;10574;52.508;13.236;2024-02-23T01:18:47;10.50;99.90
20827;DHT22;10574;52.508;13.236;2024-02-23T01:21:14;10.50;99.90
20827;DHT22;10574;52.508;13.236;2024-02-23T01:23:42;10.50;99.90
20827;DHT22;10574;52.508;13.236;2024-02-23T01:26:10;10.50;99.90
20827;DHT22;10574;52.508;13.236;2024-02-23T01:28:37;10.50;99.90
20827;DHT22;10574;52.508;13.236;2024-02-23T01:31:09;10.60;99.90
20827;DHT22;10574;52.508;13.236;2024-02-23T01:33:40;10.60;99.90
20827;DHT22;10574;52.508;13.236;2024-02-23T01:36:08;10.60;99.90
20827;DHT22;10574;52.508;13.236;2024-02-23T01:38:36;10.70;99.90
20827;DHT22;10574;52.508;13.236;2024-02-23T01:41:04;10.70;99.90
20827;DHT22;10574;52.508;13.236;2024-02-23T01:43:33;10.70;99.90
20827;DHT22;10574;52.508;13.236;2024-02-23T01:46:00;10.80;99.90
20827;DHT22;10574;52.508;13.236;2024-02-23T01:48:28;10.80;99.90
20827;DHT22;10574;52.508;13.236;2024-02-23T01:50:56;10.90;99.90
20827;DHT22;10574;52.508;13.236;2024-02-23T01:53:25;11.00;99.90
20827;DHT22;10574;52.508;13.236;2024-02-23T01:55:53;11.00;99.90
20827;DHT22;10574;52.508;13.236;2024-02-23T01:58:22;11.00;99.90
20827;DHT22;10574;52.508;13.236;2024-02-23T02:00:49;11.00;99.90
20827;DHT22;10574;52.508;13.236;2024-02-23T02:03:17;11.00;99.90
20827;DHT22;10574;52.508;13.236;2024-02-23T02:05:45;11.00;99.90
20827;DHT22;10574;52.508;13.236;2024-02-23T02:08:13;11.00;99.90
20827;DHT22;10574;52.508;13.236;2024-02-23T02:10:41;11.00;99.90
20827;DHT22;10574;52.508;13.236;2024-02-23T02:13:10;11.00;99.90
20827;DHT22;10574;52.508;13.236;2024-02-23T02:15:38;10.90;99.90
20827;DHT22;10574;52.508;13.236;2024-02-23T02:18:06;10.90;99.90
20827;DHT22;10574;52.508;13.236;2024-02-23T02:20:36;10.90;99.90
20827;DHT22;10574;52.508;13.236;2024-02-23T02:23:04;10.80;99.90
20827;DHT22;10574;52.508;13.236;2024-02-23T02:25:33;10.80;99.90
20827;DHT22;10574;52.508;13.236;2024-02-23T02:28:01;10.70;99.90
20827;DHT22;10574;52.508;13.236;2024-02-23T02:30:29;10.70;99.90
20827;DHT22;10574;52.508;13.236;2024-02-23T02:32:56;10.70;99.90
20827;DHT22;10574;52.508;13.236;2024-02-23T02:35:24;10.60;99.90
20827;DHT22;10574;52.508;13.236;2024-02-23T02:37:52;10.60;99.90
20827;DHT22;10574;52.508;13.236;2024-02-23T02:40:19;10.50;99.90
20827;DHT22;10574;52.508;13.236;2024-02-23T02:42:47;10.40;99.90
20827;DHT22;10574;52.508;13.236;2024-02-23T02:45:15;10.40;99.90
20827;DHT22;10574;52.508;13.236;2024-02-23T02:47:44;10.30;99.90
20827;DHT22;10574;52.508;13.236;2024-02-23T02:50:11;10.20;99.90
20827;DHT22;10574;52.508;13.236;2024-02-23T02:52:39;10.20;99.90
20827;DHT22;10574;52.508;13.236;2024-02-23T02:55:08;10.10;99.90
20827;DHT22;10574;52.508;13.236;2024-02-23T02:57:36;10.10;99.90
20827;DHT22;10574;52.508;13.236;2024-02-23T03:00:04;10.00;99.90
20827;DHT22;10574;52.508;13.236;2024-02-23T03:02:32;10.00;99.90
20827;DHT22;10574;52.508;13.236;2024-02-23T03:05:00;9.90;99.90
20827;DHT22;10574;52.508;13.236;2024-02-23T03:07:28;9.90;99.90
20827;DHT22;10574;52.508;13.236;2024-02-23T03:09:55;9.80;99.90
20827;DHT22;10574;52.508;13.236;2024-02-23T03:12:24;9.80;99.90
20827;DHT22;10574;52.508;13.236;2024-02-23T03:14:51;9.80;99.90
20827;DHT22;10574;52.508;13.236;2024-02-23T03:17:19;9.70;99.90
20827;DHT22;10574;52.508;13.236;2024-02-23T03:19:47;9.70;99.90
20827;DHT22;10574;52.508;13.236;2024-02-23T03:22:16;9.70;99.90
20827;DHT22;10574;52.508;13.236;2024-02-23T03:24:45;9.60;99.90
20827;DHT22;10574;52.508;13.236;2024-02-23T03:27:13;9.60;99.90
20827;DHT22;10574;52.508;13.236;2024-02-23T03:29:40;9.50;99.90
20827;DHT22;10574;52.508;13.236;2024-02-23T03:32:08;9.50;99.90
20827;DHT22;10574;52.508;13.236;2024-02-23T03:34:36;9.50;99.90
20827;DHT22;10574;52.508;13.236;2024-02-23T03:37:04;9.50;99.90
20827;DHT22;10574;52.508;13.236;2024-02-23T03:39:31;9.50;99.90
20827;DHT22;10574;52.508;13.236;2024-02-23T03:41:59;9.50;99.90
20827;DHT22;10574;52.508;13.236;2024-02-23T03:44:27;9.50;99.90
20827;DHT22;10574;52.508;13.236;2024-02-23T03:46:55;9.50;99.90
20827;DHT22;10574;52.508;13.236;2024-02-23T03:49:22;9.40;99.90
20827;DHT22;10574;52.508;13.236;2024-02-23T03:51:50;9.50;99.90
20827;DHT22;10574;52.508;13.236;2024-02-23T03:54:18;9.40;99.90
20827;DHT22;10574;52.508;13.236;2024-02-23T03:56:45;9.40;99.90
20827;DHT22;10574;52.508;13.236;2024-02-23T03:59:13;9.40;99.90
20827;DHT22;10574;52.508;13.236;2024-02-23T04:01:41;9.40;99.90
20827;DHT22;10574;52.508;13.236;2024-02-23T04:04:09;9.30;99.90
20827;DHT22;10574;52.508;13.236;2024-02-23T04:06:37;9.30;99.90
20827;DHT22;10574;52.508;13.236;2024-02-23T04:09:06;9.30;99.90
20827;DHT22;10574;52.508;13.236;2024-02-23T04:11:35;9.30;99.90
20827;DHT22;10574;52.508;13.236;2024-02-23T04:14:03;9.30;99.90
20827;DHT22;10574;52.508;13.236;2024-02-23T04:16:31;9.30;99.90
20827;DHT22;10574;52.508;13.236;2024-02-23T04:18:59;9.30;99.90
20827;DHT22;10574;52.508;13.236;2024-02-23T04:21:27;9.30;99.90
20827;DHT22;10574;52.508;13.236;2024-02-23T04:23:55;9.30;99.90
20827;DHT22;10574;52.508;13.236;2024-02-23T04:26:22;9.30;99.90
20827;DHT22;10574;52.508;13.236;2024-02-23T04:28:50;9.20;99.90
20827;DHT22;10574;52.508;13.236;2024-02-23T04:31:18;9.10;99.90
20827;DHT22;10574;52.508;13.236;2024-02-23T04:33:46;9.10;99.90
20827;DHT22;10574;52.508;13.236;2024-02-23T04:36:13;9.00;99.90
20827;DHT22;10574;52.508;13.236;2024-02-23T04:38:42;9.00;99.90
20827;DHT22;10574;52.508;13.236;2024-02-23T04:41:10;9.00;99.90
20827;DHT22;10574;52.508;13.236;2024-02-23T04:43:40;9.00;99.90
20827;DHT22;10574;52.508;13.236;2024-02-23T04:46:08;9.00;99.90
20827;DHT22;10574;52.508;13.236;2024-02-23T04:48:35;9.00;99.90
20827;DHT22;10574;52.508;13.236;2024-02-23T04:51:03;9.00;99.90
20827;DHT22;10574;52.508;13.236;2024-02-23T04:53:31;9.00;99.90
20827;DHT22;10574;52.508;13.236;2024-02-23T04:56:01;8.90;99.90
20827;DHT22;10574;52.508;13.236;2024-02-23T04:58:28;8.90;99.90
20827;DHT22;10574;52.508;13.236;2024-02-23T05:00:56;8.90;99.90
20827;DHT22;10574;52.508;13.236;2024-02-23T05:03:24;8.90;99.90
20827;DHT22;10574;52.508;13.236;2024-02-23T05:05:53;8.80;99.90
20827;DHT22;10574;52.508;13.236;2024-02-23T05:08:21;8.80;99.90
20827;DHT22;10574;52.508;13.236;2024-02-23T05:10:51;8.80;99.90
20827;DHT22;10574;52.508;13.236;2024-02-23T05:13:19;8.80;99.90
20827;DHT22;10574;52.508;13.236;2024-02-23T05:15:46;8.70;99.90
20827;DHT22;10574;52.508;13.236;2024-02-23T05:18:14;8.60;99.90
20827;DHT22;10574;52.508;13.236;2024-02-23T05:20:42;8.50;99.90
20827;DHT22;10574;52.508;13.236;2024-02-23T05:23:10;8.40;99.90
20827;DHT22;10574;52.508;13.236;2024-02-23T05:25:37;8.50;99.90
20827;DHT22;10574;52.508;13.236;2024-02-23T05:28:05;8.40;99.90
20827;DHT22;10574;52.508;13.236;2024-02-23T05:30:34;8.30;99.90
20827;DHT22;10574;52.508;13.236;2024-02-23T05:33:02;8.20;99.90
20827;DHT22;10574;52.508;13.236;2024-02-23T05:35:30;8.20;99.90
20827;DHT22;10574;52.508;13.236;2024-02-23T05:37:58;8.10;99.90
20827;DHT22;10574;52.508;13.236;2024-02-23T05:40:25;8.00;99.90
20827;DHT22;10574;52.508;13.236;2024-02-23T05:42:53;8.00;99.90
20827;DHT22;10574;52.508;13.236;2024-02-23T05:45:21;7.90;99.90
20827;DHT22;10574;52.508;13.236;2024-02-23T05:47:49;7.80;99.90
20827;DHT22;10574;52.508;13.236;2024-02-23T05:50:17;7.80;99.90
20827;DHT22;10574;52.508;13.236;2024-02-23T05:52:44;7.70;99.90
20827;DHT22;10574;52.508;13.236;2024-02-23T05:55:12;7.70;99.90
20827;DHT22;10574;52.508;13.236;2024-02-23T05:57:41;7.60;99.90
20827;DHT22;10574;52.508;13.236;2024-02-23T06:00:09;7.60;99.90
20827;DHT22;10574;52.508;13.236;2024-02-23T06:02:38;7.50;99.90
20827;DHT22;10574;52.508;13.236;2024-02-23T06:05:07;7.50;99.90
20827;DHT22;10574;52.508;13.236;2024-02-23T06:07:37;7.50;99.90
20827;DHT22;10574;52.508;13.236;2024-02-23T06:10:08;7.50;99.90
20827;DHT22;10574;52.508;13.236;2024-02-23T06:12:35;7.50;99.90
20827;DHT22;10574;52.508;13.236;2024-02-23T06:15:05;7.40;99.90
20827;DHT22;10574;52.508;13.236;2024-02-23T06:17:33;7.40;99.90
20827;DHT22;10574;52.508;13.236;2024-02-23T06:20:01;7.40;99.90
20827;DHT22;10574;52.508;13.236;2024-02-23T06:22:29;7.40;99.90
20827;DHT22;10574;52.508;13.236;2024-02-23T06:24:57;7.40;99.90
20827;DHT22;10574;52.508;13.236;2024-02-23T06:27:25;7.40;99.90
20827;DHT22;10574;52.508;13.236;2024-02-23T06:29:54;7.40;99.90
20827;DHT22;10574;52.508;13.236;2024-02-23T06:32:22;7.30;99.90
20827;DHT22;10574;52.508;13.236;2024-02-23T06:34:50;7.30;99.90
20827;DHT22;10574;52.508;13.236;2024-02-23T06:37:17;7.30;99.90
20827;DHT22;10574;52.508;13.236;2024-02-23T06:39:45;7.30;99.90
20827;DHT22;10574;52.508;13.236;2024-02-23T06:42:14;7.30;99.90
20827;DHT22;10574;52.508;13.236;2024-02-23T06:44:42;7.30;99.90
20827;DHT22;10574;52.508;13.236;2024-02-23T06:47:10;7.30;99.90
20827;DHT22;10574;52.508;13.236;2024-02-23T06:49:43;7.40;99.90
20827;DHT22;10574;52.508;13.236;2024-02-23T06:52:11;7.40;99.90
20827;DHT22;10574;52.508;13.236;2024-02-23T06:54:39;7.50;99.90
20827;DHT22;10574;52.508;13.236;2024-02-23T06:57:07;7.60;99.90
20827;DHT22;10574;52.508;13.236;2024-02-23T06:59:35;7.70;99.90
20827;DHT22;10574;52.508;13.236;2024-02-23T07:02:02;7.70;99.90
20827;DHT22;10574;52.508;13.236;2024-02-23T07:04:30;7.80;99.90
20827;DHT22;10574;52.508;13.236;2024-02-23T07:06:58;7.80;99.90
20827;DHT22;10574;52.508;13.236;2024-02-23T07:09:26;7.80;99.90
20827;DHT22;10574;52.508;13.236;2024-02-23T07:11:54;7.80;99.90
20827;DHT22;10574;52.508;13.236;2024-02-23T07:14:22;7.70;99.90
20827;DHT22;10574;52.508;13.236;2024-02-23T07:16:50;7.70;99.90
20827;DHT22;10574;52.508;13.236;2024-02-23T07:19:18;7.70;99.90
20827;DHT22;10574;52.508;13.236;2024-02-23T07:21:48;7.70;99.90
20827;DHT22;10574;52.508;13.236;2024-02-23T07:24:16;7.70;99.90
20827;DHT22;10574;52.508;13.236;2024-02-23T07:26:44;7.70;99.90
20827;DHT22;10574;52.508;13.236;2024-02-23T07:29:12;7.70;99.90
20827;DHT22;10574;52.508;13.236;2024-02-23T07:31:39;7.60;99.90
20827;DHT22;10574;52.508;13.236;2024-02-23T07:34:07;7.60;99.90
20827;DHT22;10574;52.508;13.236;2024-02-23T07:36:35;7.60;99.90
20827;DHT22;10574;52.508;13.236;2024-02-23T07:39:03;7.60;99.90
20827;DHT22;10574;52.508;13.236;2024-02-23T07:41:30;7.60;99.90
20827;DHT22;10574;52.508;13.236;2024-02-23T07:43:58;7.70;99.90
20827;DHT22;10574;52.508;13.236;2024-02-23T07:46:26;7.70;99.90
20827;DHT22;10574;52.508;13.236;2024-02-23T07:48:54;7.80;99.90
20827;DHT22;10574;52.508;13.236;2024-02-23T07:51:21;7.80;99.90
20827;DHT22;10574;52.508;13.236;2024-02-23T07:53:49;7.80;99.90
20827;DHT22;10574;52.508;13.236;2024-02-23T07:56:17;7.80;99.90
20827;DHT22;10574;52.508;13.236;2024-02-23T07:58:44;7.80;99.90
20827;DHT22;10574;52.508;13.236;2024-02-23T08:01:14;7.90;99.90
20827;DHT22;10574;52.508;13.236;2024-02-23T08:03:42;8.00;99.90
20827;DHT22;10574;52.508;13.236;2024-02-23T08:06:10;8.10;99.90
20827;DHT22;10574;52.508;13.236;2024-02-23T08:08:39;8.20;99.90
20827;DHT22;10574;52.508;13.236;2024-02-23T08:11:07;8.30;99.90
20827;DHT22;10574;52.508;13.236;2024-02-23T08:13:35;8.40;99.90
20827;DHT22;10574;52.508;13.236;2024-02-23T08:16:03;8.60;99.90
20827;DHT22;10574;52.508;13.236;2024-02-23T08:18:30;8.50;99.90
20827;DHT22;10574;52.508;13.236;2024-02-23T08:20:58;8.60;99.90
20827;DHT22;10574;52.508;13.236;2024-02-23T08:23:28;8.70;99.90
20827;DHT22;10574;52.508;13.236;2024-02-23T08:25:56;8.70;99.90
20827;DHT22;10574;52.508;13.236;2024-02-23T08:28:25;8.80;99.90
20827;DHT22;10574;52.508;13.236;2024-02-23T08:30:52;8.70;99.90
20827;DHT22;10574;52.508;13.236;2024-02-23T08:33:20;8.70;99.90
20827;DHT22;10574;52.508;13.236;2024-02-23T08:35:48;8.60;99.90
20827;DHT22;10574;52.508;13.236;2024-02-23T08:38:16;8.60;99.90
20827;DHT22;10574;52.508;13.236;2024-02-23T08:40:45;8.70;99.90
20827;DHT22;10574;52.508;13.236;2024-02-23T08:43:14;8.70;99.90
20827;DHT22;10574;52.508;13.236;2024-02-23T08:45:41;8.80;99.90
20827;DHT22;10574;52.508;13.236;2024-02-23T08:48:09;8.80;99.90
20827;DHT22;10574;52.508;13.236;2024-02-23T08:50:38;8.80;99.90
20827;DHT22;10574;52.508;13.236;2024-02-23T08:53:06;8.80;99.90
20827;DHT22;10574;52.508;13.236;2024-02-23T08:55:34;8.90;99.90
20827;DHT22;10574;52.508;13.236;2024-02-23T08:58:02;8.90;99.90
20827;DHT22;10574;52.508;13.236;2024-02-23T09:00:30;8.80;99.90
20827;DHT22;10574;52.508;13.236;2024-02-23T09:02:57;8.90;99.90
20827;DHT22;10574;52.508;13.236;2024-02-23T09:05:25;9.00;99.90
20827;DHT22;10574;52.508;13.236;2024-02-23T09:07:53;9.00;99.90
20827;DHT22;10574;52.508;13.236;2024-02-23T09:10:21;9.10;99.90
20827;DHT22;10574;52.508;13.236;2024-02-23T09:12:48;9.00;99.90
20827;DHT22;10574;52.508;13.236;2024-02-23T09:15:16;9.00;99.90
20827;DHT22;10574;52.508;13.236;2024-02-23T09:17:44;9.00;99.90
20827;DHT22;10574;52.508;13.236;2024-02-23T09:20:12;9.10;99.90
20827;DHT22;10574;52.508;13.236;2024-02-23T09:22:40;9.20;99.90
20827;DHT22;10574;52.508;13.236;2024-02-23T09:25:08;9.30;99.90
20827;DHT22;10574;52.508;13.236;2024-02-23T09:27:36;9.30;99.90
20827;DHT22;10574;52.508;13.236;2024-02-23T09:30:06;9.30;99.90
20827;DHT22;10574;52.508;13.236;2024-02-23T09:32:34;9.40;99.90
20827;DHT22;10574;52.508;13.236;2024-02-23T09:35:02;9.40;99.90
20827;DHT22;10574;52.508;13.236;2024-02-23T09:37:31;9.40;99.90
20827;DHT22;10574;52.508;13.236;2024-02-23T09:39:59;9.50;99.90
20827;DHT22;10574;52.508;13.236;2024-02-23T09:42:28;9.50;99.90
20827;DHT22;10574;52.508;13.236;2024-02-23T09:44:59;9.50;99.90
20827;DHT22;10574;52.508;13.236;2024-02-23T09:47:31;9.30;99.90
20827;DHT22;10574;52.508;13.236;2024-02-23T09:50:00;9.40;99.90
20827;DHT22;10574;52.508;13.236;2024-02-23T09:52:30;9.60;99.90
20827;DHT22;10574;52.508;13.236;2024-02-23T09:55:00;9.60;99.90
20827;DHT22;10574;52.508;13.236;2024-02-23T09:57:27;9.40;99.90
20827;DHT22;10574;52.508;13.236;2024-02-23T09:59:55;9.40;99.90
20827;DHT22;10574;52.508;13.236;2024-02-23T10:02:23;9.50;99.90
20827;DHT22;10574;52.508;13.236;2024-02-23T10:04:54;9.50;99.90
20827;DHT22;10574;52.508;13.236;2024-02-23T10:07:24;9.60;99.90
20827;DHT22;10574;52.508;13.236;2024-02-23T10:09:53;9.60;99.90
20827;DHT22;10574;52.508;13.236;2024-02-23T10:12:22;9.50;99.90
20827;DHT22;10574;52.508;13.236;2024-02-23T10:14:50;9.50;99.90
20827;DHT22;10574;52.508;13.236;2024-02-23T10:17:19;9.40;99.90
20827;DHT22;10574;52.508;13.236;2024-02-23T10:19:47;9.30;99.90
20827;DHT22;10574;52.508;13.236;2024-02-23T10:22:15;9.30;99.90
20827;DHT22;10574;52.508;13.236;2024-02-23T10:24:43;9.30;99.90
20827;DHT22;10574;52.508;13.236;2024-02-23T10:27:11;9.30;99.90
20827;DHT22;10574;52.508;13.236;2024-02-23T10:29:39;9.40;99.90
20827;DHT22;10574;52.508;13.236;2024-02-23T10:32:07;9.50;99.90
20827;DHT22;10574;52.508;13.236;2024-02-23T10:34:37;9.70;99.90
20827;DHT22;10574;52.508;13.236;2024-02-23T10:37:07;9.90;99.90
20827;DHT22;10574;52.508;13.236;2024-02-23T10:39:36;10.10;99.90
20827;DHT22;10574;52.508;13.236;2024-02-23T10:42:05;10.30;99.90
20827;DHT22;10574;52.508;13.236;2024-02-23T10:44:35;10.20;99.90
20827;DHT22;10574;52.508;13.236;2024-02-23T10:47:05;10.20;99.90
20827;DHT22;10574;52.508;13.236;2024-02-23T10:49:35;10.30;99.90
20827;DHT22;10574;52.508;13.236;2024-02-23T10:52:05;10.30;99.90
20827;DHT22;10574;52.508;13.236;2024-02-23T10:54:33;10.30;99.90
20827;DHT22;10574;52.508;13.236;2024-02-23T10:57:02;10.10;99.90
20827;DHT22;10574;52.508;13.236;2024-02-23T10:59:30;10.00;99.90
20827;DHT22;10574;52.508;13.236;2024-02-23T11:02:00;9.70;99.90
20827;DHT22;10574;52.508;13.236;2024-02-23T11:04:28;9.80;99.90
20827;DHT22;10574;52.508;13.236;2024-02-23T11:06:56;9.80;99.90
20827;DHT22;10574;52.508;13.236;2024-02-23T11:09:25;9.90;99.90
20827;DHT22;10574;52.508;13.236;2024-02-23T11:11:56;10.00;99.90
20827;DHT22;10574;52.508;13.236;2024-02-23T11:14:30;10.10;99.90
20827;DHT22;10574;52.508;13.236;2024-02-23T11:17:00;10.20;99.90
20827;DHT22;10574;52.508;13.236;2024-02-23T11:19:36;10.10;99.90
20827;DHT22;10574;52.508;13.236;2024-02-23T11:22:04;9.90;99.90
20827;DHT22;10574;52.508;13.236;2024-02-23T11:24:32;10.10;99.90
20827;DHT22;10574;52.508;13.236;2024-02-23T11:27:01;10.10;99.90
20827;DHT22;10574;52.508;13.236;2024-02-23T11:29:30;10.20;99.90
20827;DHT22;10574;52.508;13.236;2024-02-23T11:31:59;10.00;99.90
20827;DHT22;10574;52.508;13.236;2024-02-23T11:34:28;10.00;99.90
20827;DHT22;10574;52.508;13.236;2024-02-23T11:36:56;10.00;99.90
20827;DHT22;10574;52.508;13.236;2024-02-23T11:39:26;10.00;99.90
20827;DHT22;10574;52.508;13.236;2024-02-23T11:41:54;10.10;99.90
20827;DHT22;10574;52.508;13.236;2024-02-23T11:44:24;10.10;99.90
20827;DHT22;10574;52.508;13.236;2024-02-23T11:46:52;10.10;99.90
20827;DHT22;10574;52.508;13.236;2024-02-23T11:49:20;10.20;99.90
20827;DHT22;10574;52.508;13.236;2024-02-23T11:51:48;10.20;99.90
20827;DHT22;10574;52.508;13.236;2024-02-23T11:54:15;10.20;99.90
20827;DHT22;10574;52.508;13.236;2024-02-23T11:56:43;10.10;99.90
20827;DHT22;10574;52.508;13.236;2024-02-23T11:59:11;10.20;99.90
20827;DHT22;10574;52.508;13.236;2024-02-23T12:01:39;10.20;99.90
20827;DHT22;10574;52.508;13.236;2024-02-23T12:04:07;10.20;99.90
20827;DHT22;10574;52.508;13.236;2024-02-23T12:06:35;10.20;99.90
20827;DHT22;10574;52.508;13.236;2024-02-23T12:09:03;10.20;99.90
20827;DHT22;10574;52.508;13.236;2024-02-23T12:11:31;10.10;99.90
20827;DHT22;10574;52.508;13.236;2024-02-23T12:14:00;9.80;99.90
20827;DHT22;10574;52.508;13.236;2024-02-23T12:16:33;9.80;99.90
20827;DHT22;10574;52.508;13.236;2024-02-23T12:19:03;9.80;99.90
20827;DHT22;10574;52.508;13.236;2024-02-23T12:21:33;10.00;99.90
20827;DHT22;10574;52.508;13.236;2024-02-23T12:24:00;10.10;99.90
20827;DHT22;10574;52.508;13.236;2024-02-23T12:26:29;10.10;99.90
20827;DHT22;10574;52.508;13.236;2024-02-23T12:29:02;10.10;99.90
20827;DHT22;10574;52.508;13.236;2024-02-23T12:31:31;10.20;99.90
20827;DHT22;10574;52.508;13.236;2024-02-23T12:33:59;10.20;99.90
20827;DHT22;10574;52.508;13.236;2024-02-23T12:36:29;10.20;99.90
20827;DHT22;10574;52.508;13.236;2024-02-23T12:38:58;10.20;99.90
20827;DHT22;10574;52.508;13.236;2024-02-23T12:41:26;10.10;99.90
20827;DHT22;10574;52.508;13.236;2024-02-23T12:43:54;10.20;99.90
20827;DHT22;10574;52.508;13.236;2024-02-23T12:46:21;10.00;99.90
20827;DHT22;10574;52.508;13.236;2024-02-23T12:48:50;10.10;99.90
20827;DHT22;10574;52.508;13.236;2024-02-23T12:51:18;10.10;99.90
20827;DHT22;10574;52.508;13.236;2024-02-23T12:53:46;10.10;99.90
20827;DHT22;10574;52.508;13.236;2024-02-23T12:56:14;10.00;99.90
20827;DHT22;10574;52.508;13.236;2024-02-23T12:58:43;10.00;99.90
20827;DHT22;10574;52.508;13.236;2024-02-23T13:01:12;10.00;99.90
20827;DHT22;10574;52.508;13.236;2024-02-23T13:03:40;10.10;99.90
20827;DHT22;10574;52.508;13.236;2024-02-23T13:06:08;9.80;99.90
20827;DHT22;10574;52.508;13.236;2024-02-23T13:08:36;9.90;99.90
20827;DHT22;10574;52.508;13.236;2024-02-23T13:11:05;9.90;99.90
20827;DHT22;10574;52.508;13.236;2024-02-23T13:13:33;9.90;99.90
20827;DHT22;10574;52.508;13.236;2024-02-23T13:16:01;9.80;99.90
20827;DHT22;10574;52.508;13.236;2024-02-23T13:18:29;10.00;99.90
20827;DHT22;10574;52.508;13.236;2024-02-23T13:20:56;10.00;99.90
20827;DHT22;10574;52.508;13.236;2024-02-23T13:23:24;10.10;99.90
20827;DHT22;10574;52.508;13.236;2024-02-23T13:25:52;10.00;99.90
20827;DHT22;10574;52.508;13.236;2024-02-23T13:28:20;10.00;99.90
20827;DHT22;10574;52.508;13.236;2024-02-23T13:30:47;10.00;99.90
20827;DHT22;10574;52.508;13.236;2024-02-23T13:33:15;9.90;99.90
20827;DHT22;10574;52.508;13.236;2024-02-23T13:35:44;9.70;99.90
20827;DHT22;10574;52.508;13.236;2024-02-23T13:38:12;9.70;99.90
20827;DHT22;10574;52.508;13.236;2024-02-23T13:40:40;9.80;99.90
20827;DHT22;10574;52.508;13.236;2024-02-23T13:43:08;9.80;99.90
20827;DHT22;10574;52.508;13.236;2024-02-23T13:45:47;9.50;99.90
20827;DHT22;10574;52.508;13.236;2024-02-23T13:48:07;9.50;99.90
20827;DHT22;10574;52.508;13.236;2024-02-23T13:50:35;9.60;99.90
20827;DHT22;10574;52.508;13.236;2024-02-23T13:53:02;9.60;99.90
20827;DHT22;10574;52.508;13.236;2024-02-23T13:55:30;9.60;99.90
20827;DHT22;10574;52.508;13.236;2024-02-23T13:57:58;9.60;99.90
20827;DHT22;10574;52.508;13.236;2024-02-23T14:00:26;9.60;99.90
20827;DHT22;10574;52.508;13.236;2024-02-23T14:02:53;9.50;99.90
20827;DHT22;10574;52.508;13.236;2024-02-23T14:05:21;9.70;99.90
20827;DHT22;10574;52.508;13.236;2024-02-23T14:07:51;9.80;99.90
20827;DHT22;10574;52.508;13.236;2024-02-23T14:10:20;9.80;99.90
20827;DHT22;10574;52.508;13.236;2024-02-23T14:12:48;9.70;99.90
20827;DHT22;10574;52.508;13.236;2024-02-23T14:15:17;9.60;99.90
20827;DHT22;10574;52.508;13.236;2024-02-23T14:17:45;9.50;99.90
20827;DHT22;10574;52.508;13.236;2024-02-23T14:20:12;9.40;99.90
20827;DHT22;10574;52.508;13.236;2024-02-23T14:22:40;9.40;99.90
20827;DHT22;10574;52.508;13.236;2024-02-23T14:25:08;9.30;99.90
20827;DHT22;10574;52.508;13.236;2024-02-23T14:27:36;9.30;99.90
20827;DHT22;10574;52.508;13.236;2024-02-23T14:30:05;9.30;99.90
20827;DHT22;10574;52.508;13.236;2024-02-23T14:32:33;9.20;99.90
20827;DHT22;10574;52.508;13.236;2024-02-23T14:35:05;9.20;99.90
20827;DHT22;10574;52.508;13.236;2024-02-23T14:37:33;9.30;99.90
20827;DHT22;10574;52.508;13.236;2024-02-23T14:40:01;9.40;99.90
20827;DHT22;10574;52.508;13.236;2024-02-23T14:42:29;9.40;99.90
20827;DHT22;10574;52.508;13.236;2024-02-23T14:44:57;9.30;99.90
20827;DHT22;10574;52.508;13.236;2024-02-23T14:47:25;9.20;99.90
20827;DHT22;10574;52.508;13.236;2024-02-23T14:49:53;9.30;99.90
20827;DHT22;10574;52.508;13.236;2024-02-23T14:52:20;9.40;99.90
20827;DHT22;10574;52.508;13.236;2024-02-23T14:54:48;9.40;99.90
20827;DHT22;10574;52.508;13.236;2024-02-23T14:57:16;9.30;99.90
20827;DHT22;10574;52.508;13.236;2024-02-23T14:59:44;9.20;99.90
20827;DHT22;10574;52.508;13.236;2024-02-23T15:02:17;9.20;99.90
20827;DHT22;10574;52.508;13.236;2024-02-23T15:04:44;9.20;99.90
20827;DHT22;10574;52.508;13.236;2024-02-23T15:07:15;9.20;99.90
20827;DHT22;10574;52.508;13.236;2024-02-23T15:09:43;9.20;99.90
20827;DHT22;10574;52.508;13.236;2024-02-23T15:12:11;9.20;99.90
20827;DHT22;10574;52.508;13.236;2024-02-23T15:14:40;9.20;99.90
20827;DHT22;10574;52.508;13.236;2024-02-23T15:17:08;9.10;99.90
20827;DHT22;10574;52.508;13.236;2024-02-23T15:19:36;9.10;99.90
20827;DHT22;10574;52.508;13.236;2024-02-23T15:22:04;8.90;99.90
20827;DHT22;10574;52.508;13.236;2024-02-23T15:24:34;8.90;99.90
20827;DHT22;10574;52.508;13.236;2024-02-23T15:27:01;8.90;99.90
20827;DHT22;10574;52.508;13.236;2024-02-23T15:29:29;8.80;99.90
20827;DHT22;10574;52.508;13.236;2024-02-23T15:31:57;8.80;99.90